Reyes, Bolivia
Current Conditions -  °F | °C
As of 11:00 PM on Monday 26 Jan 2015 (Local Time) from SLLP Reporting Station
Broken Clouds Broken Clouds  
Wind Chill: 44°   Ceiling: 20000
Heat Index: 46°   Visibility: 6mi
Dew Point: 37°   Wind: 5mph
Humidity: 71%   Direction: 330°NNW
Pressure: 30.59"   Gusts: NA
Location:  14.31°S, 67.37°W
Report Text: SLLP 270300Z 33004KT 9999 FEW005 FEW017CB BKN200 08/03 Q1036
Loading
Personal Weather Stations






























Interactive Weather Map New forecast layout! Learn more

10-Day Weather Forecast

Advertisements
Track Severe Weather on mobile